sensor_id;sensor_type;location;lat;lon;timestamp;pressure;altitude;pressure_sealevel;temperature;humidity
60427;BME280;46274;47.168;27.604;2022-12-13T00:02:46;99251.19;;;-2.29;77.47
60427;BME280;46274;47.168;27.604;2022-12-13T00:08:52;99157.47;;;-3.24;76.47
60427;BME280;46274;47.168;27.604;2022-12-13T00:14:56;99346.63;;;-2.16;76.31
60427;BME280;46274;47.168;27.604;2022-12-13T00:21:03;99209.53;;;-2.64;75.65
60427;BME280;46274;47.168;27.604;2022-12-13T00:27:05;99285.63;;;-3.01;76.15
60427;BME280;46274;47.168;27.604;2022-12-13T00:33:08;99326.41;;;-2.54;75.44
60427;BME280;46274;47.168;27.604;2022-12-13T00:39:13;99353.03;;;-3.05;77.56
60427;BME280;46274;47.168;27.604;2022-12-13T00:45:17;99334.88;;;-2.49;74.23
60427;BME280;46274;47.168;27.604;2022-12-13T00:51:22;99337.97;;;-3.18;75.52
60427;BME280;46274;47.168;27.604;2022-12-13T00:57:26;99335.91;;;-2.76;73.94
60427;BME280;46274;47.168;27.604;2022-12-13T01:03:28;99185.09;;;-3.78;76.01
60427;BME280;46274;47.168;27.604;2022-12-13T01:09:31;99231.56;;;-4.65;80.56
60427;BME280;46274;47.168;27.604;2022-12-13T01:15:34;99316.16;;;-3.09;76.88
60427;BME280;46274;47.168;27.604;2022-12-13T01:21:37;99329.41;;;-2.72;76.33
60427;BME280;46274;47.168;27.604;2022-12-13T01:27:39;99311.06;;;-3.12;76.44
60427;BME280;46274;47.168;27.604;2022-12-13T01:33:45;99277.97;;;-3.81;73.79
60427;BME280;46274;47.168;27.604;2022-12-13T01:39:48;99316.94;;;-3.58;73.65
60427;BME280;46274;47.168;27.604;2022-12-13T01:45:58;99315.97;;;-3.57;73.38
60427;BME280;46274;47.168;27.604;2022-12-13T01:52:05;99297.34;;;-3.68;73.02
60427;BME280;46274;47.168;27.604;2022-12-13T01:58:11;99257.72;;;-3.95;72.99
60427;BME280;46274;47.168;27.604;2022-12-13T02:04:39;99269.78;;;-3.78;70.33
60427;BME280;46274;47.168;27.604;2022-12-13T02:10:45;99257.84;;;-3.58;69.42
60427;BME280;46274;47.168;27.604;2022-12-13T02:42:13;99294.06;;;-2.83;64.71
60427;BME280;46274;47.168;27.604;2022-12-13T02:48:25;99265.69;;;-2.94;65.11
60427;BME280;46274;47.168;27.604;2022-12-13T02:54:29;99286.31;;;-2.87;65.62
60427;BME280;46274;47.168;27.604;2022-12-13T03:01:10;99282.44;;;-3.07;65.81
60427;BME280;46274;47.168;27.604;2022-12-13T03:07:38;99285.41;;;-2.98;66.20
60427;BME280;46274;47.168;27.604;2022-12-13T03:13:59;99260.25;;;-3.42;65.54
60427;BME280;46274;47.168;27.604;2022-12-13T03:20:04;99299.63;;;-3.12;65.93
60427;BME280;46274;47.168;27.604;2022-12-13T03:26:25;99320.94;;;-3.26;65.85
60427;BME280;46274;47.168;27.604;2022-12-13T03:32:27;99294.56;;;-3.41;65.84
60427;BME280;46274;47.168;27.604;2022-12-13T03:38:30;99324.88;;;-3.32;67.00
60427;BME280;46274;47.168;27.604;2022-12-13T03:44:34;99305.50;;;-3.45;67.17
60427;BME280;46274;47.168;27.604;2022-12-13T03:50:37;99291.50;;;-3.47;66.04
60427;BME280;46274;47.168;27.604;2022-12-13T03:56:39;99273.72;;;-3.58;64.92
60427;BME280;46274;47.168;27.604;2022-12-13T04:02:42;99341.81;;;-3.22;65.76
60427;BME280;46274;47.168;27.604;2022-12-13T04:08:44;99345.06;;;-3.05;66.03
60427;BME280;46274;47.168;27.604;2022-12-13T04:14:51;99353.84;;;-2.92;66.32
60427;BME280;46274;47.168;27.604;2022-12-13T04:20:53;99322.50;;;-2.98;65.76
60427;BME280;46274;47.168;27.604;2022-12-13T04:26:55;99358.19;;;-2.78;66.14
60427;BME280;46274;47.168;27.604;2022-12-13T04:33:01;99349.59;;;-2.82;66.53
60427;BME280;46274;47.168;27.604;2022-12-13T04:39:04;99294.22;;;-3.11;66.38
60427;BME280;46274;47.168;27.604;2022-12-13T04:45:22;99335.59;;;-2.84;66.77
60427;BME280;46274;47.168;27.604;2022-12-13T04:51:28;99347.69;;;-2.80;67.24
60427;BME280;46274;47.168;27.604;2022-12-13T04:57:31;99375.25;;;-2.70;68.26
60427;BME280;46274;47.168;27.604;2022-12-13T05:03:34;99367.63;;;-2.37;66.82
60427;BME280;46274;47.168;27.604;2022-12-13T05:09:36;99368.09;;;-2.32;66.89
60427;BME280;46274;47.168;27.604;2022-12-13T05:15:41;99312.31;;;-2.92;69.43
60427;BME280;46274;47.168;27.604;2022-12-13T05:21:43;99357.16;;;-2.52;69.18
60427;BME280;46274;47.168;27.604;2022-12-13T05:27:48;99386.41;;;-2.41;69.56
60427;BME280;46274;47.168;27.604;2022-12-13T05:33:57;99347.59;;;-2.78;69.95
60427;BME280;46274;47.168;27.604;2022-12-13T05:40:04;99372.59;;;-2.70;70.24
60427;BME280;46274;47.168;27.604;2022-12-13T05:46:13;99399.59;;;-2.52;69.91
60427;BME280;46274;47.168;27.604;2022-12-13T05:52:18;99398.22;;;-2.21;70.28
60427;BME280;46274;47.168;27.604;2022-12-13T05:58:31;99334.91;;;-2.62;69.00
60427;BME280;46274;47.168;27.604;2022-12-13T06:04:36;99332.41;;;-2.76;67.76
60427;BME280;46274;47.168;27.604;2022-12-13T06:10:39;99424.28;;;-2.14;69.12
60427;BME280;46274;47.168;27.604;2022-12-13T06:16:41;99416.69;;;-2.19;69.16
60427;BME280;46274;47.168;27.604;2022-12-13T06:22:46;99433.50;;;-2.07;70.05
60427;BME280;46274;47.168;27.604;2022-12-13T06:28:48;99381.72;;;-2.37;71.03
60427;BME280;46274;47.168;27.604;2022-12-13T06:34:51;99426.00;;;-2.13;71.57
60427;BME280;46274;47.168;27.604;2022-12-13T06:41:11;99428.16;;;-2.18;72.80
60427;BME280;46274;47.168;27.604;2022-12-13T06:47:14;99442.53;;;-2.10;74.66
60427;BME280;46274;47.168;27.604;2022-12-13T06:53:35;99478.81;;;-1.98;76.54
60427;BME280;46274;47.168;27.604;2022-12-13T06:59:38;99477.97;;;-1.98;77.45
60427;BME280;46274;47.168;27.604;2022-12-13T07:05:41;99419.72;;;-2.36;79.20
60427;BME280;46274;47.168;27.604;2022-12-13T07:11:44;99477.53;;;-1.92;78.88
60427;BME280;46274;47.168;27.604;2022-12-13T07:17:52;99482.84;;;-1.92;79.34
60427;BME280;46274;47.168;27.604;2022-12-13T07:23:58;99471.13;;;-1.89;78.77
60427;BME280;46274;47.168;27.604;2022-12-13T07:30:04;99482.50;;;-1.63;78.64
60427;BME280;46274;47.168;27.604;2022-12-13T07:36:15;99487.59;;;-1.60;79.00
60427;BME280;46274;47.168;27.604;2022-12-13T07:42:17;99492.06;;;-1.61;78.73
60427;BME280;46274;47.168;27.604;2022-12-13T07:48:19;99502.34;;;-1.56;78.68
60427;BME280;46274;47.168;27.604;2022-12-13T07:54:22;99501.22;;;-1.41;78.09
60427;BME280;46274;47.168;27.604;2022-12-13T08:00:24;99501.88;;;-1.26;77.91
60427;BME280;46274;47.168;27.604;2022-12-13T08:06:27;99523.28;;;-1.16;77.62
60427;BME280;46274;47.168;27.604;2022-12-13T08:12:30;99485.22;;;-1.76;80.34
60427;BME280;46274;47.168;27.604;2022-12-13T08:18:33;99531.31;;;-1.05;78.44
60427;BME280;46274;47.168;27.604;2022-12-13T08:24:35;99475.72;;;-1.08;77.86
60427;BME280;46274;47.168;27.604;2022-12-13T08:30:40;99504.25;;;-0.99;77.91
60427;BME280;46274;47.168;27.604;2022-12-13T08:36:42;99527.06;;;-0.72;77.48
60427;BME280;46274;47.168;27.604;2022-12-13T08:42:45;99504.78;;;-0.71;77.39
60427;BME280;46274;47.168;27.604;2022-12-13T08:48:47;99518.69;;;-0.79;77.79
60427;BME280;46274;47.168;27.604;2022-12-13T08:54:50;99388.63;;;-1.51;77.18
60427;BME280;46274;47.168;27.604;2022-12-13T09:00:52;99530.91;;;-0.65;77.16
60427;BME280;46274;47.168;27.604;2022-12-13T09:06:55;99530.06;;;-0.54;77.44
60427;BME280;46274;47.168;27.604;2022-12-13T09:13:02;99510.75;;;-0.56;77.50
60427;BME280;46274;47.168;27.604;2022-12-13T09:19:12;99513.25;;;-0.66;78.05
60427;BME280;46274;47.168;27.604;2022-12-13T09:25:25;99514.97;;;-0.54;78.21
60427;BME280;46274;47.168;27.604;2022-12-13T09:31:36;99503.13;;;-0.61;78.69
60427;BME280;46274;47.168;27.604;2022-12-13T09:37:42;99438.25;;;-0.94;78.32
60427;BME280;46274;47.168;27.604;2022-12-13T09:44:04;99488.34;;;-0.76;78.41
60427;BME280;46274;47.168;27.604;2022-12-13T09:50:41;99517.41;;;-0.62;77.72
60427;BME280;46274;47.168;27.604;2022-12-13T09:56:59;99539.66;;;-0.40;77.54
60427;BME280;46274;47.168;27.604;2022-12-13T10:03:09;99538.69;;;-0.39;76.98
60427;BME280;46274;47.168;27.604;2022-12-13T10:09:21;99542.91;;;-0.37;76.86
60427;BME280;46274;47.168;27.604;2022-12-13T10:15:27;99540.88;;;-0.33;76.00
60427;BME280;46274;47.168;27.604;2022-12-13T10:21:36;99549.47;;;-0.30;76.06
60427;BME280;46274;47.168;27.604;2022-12-13T10:27:42;99546.19;;;-0.22;75.86
60427;BME280;46274;47.168;27.604;2022-12-13T10:33:56;99541.38;;;-0.17;76.11
60427;BME280;46274;47.168;27.604;2022-12-13T10:40:04;99551.66;;;-0.12;75.12
60427;BME280;46274;47.168;27.604;2022-12-13T10:46:18;99527.78;;;-0.36;76.27
60427;BME280;46274;47.168;27.604;2022-12-13T10:52:38;99443.13;;;-0.76;76.06
60427;BME280;46274;47.168;27.604;2022-12-13T10:58:53;99414.09;;;-1.02;76.58
60427;BME280;46274;47.168;27.604;2022-12-13T11:05:28;99543.78;;;-0.14;76.75
60427;BME280;46274;47.168;27.604;2022-12-13T11:11:45;99557.56;;;-0.09;76.40
60427;BME280;46274;47.168;27.604;2022-12-13T11:18:05;99568.59;;;-0.02;76.23
60427;BME280;46274;47.168;27.604;2022-12-13T11:24:36;99552.88;;;-0.05;75.29
60427;BME280;46274;47.168;27.604;2022-12-13T11:43:57;99569.19;;;0.13;73.85
60427;BME280;46274;47.168;27.604;2022-12-13T11:50:30;99527.03;;;0.29;72.22
60427;BME280;46274;47.168;27.604;2022-12-13T11:56:56;99521.81;;;0.28;70.97
60427;BME280;46274;47.168;27.604;2022-12-13T12:03:20;99527.78;;;0.09;71.23
60427;BME280;46274;47.168;27.604;2022-12-13T12:09:34;99576.44;;;0.33;71.34
60427;BME280;46274;47.168;27.604;2022-12-13T12:16:00;99581.75;;;0.45;71.70
60427;BME280;46274;47.168;27.604;2022-12-13T12:35:40;99589.06;;;0.09;72.19
60427;BME280;46274;47.168;27.604;2022-12-13T13:01:38;99645.69;;;0.33;72.40
60427;BME280;46274;47.168;27.604;2022-12-13T13:07:59;99653.47;;;0.25;72.01
60427;BME280;46274;47.168;27.604;2022-12-13T13:14:05;99653.59;;;0.24;71.63
60427;BME280;46274;47.168;27.604;2022-12-13T13:20:28;99626.59;;;0.17;71.87
60427;BME280;46274;47.168;27.604;2022-12-13T13:26:40;99672.25;;;0.57;71.88
60427;BME280;46274;47.168;27.604;2022-12-13T13:32:47;99675.00;;;0.67;71.82
60427;BME280;46274;47.168;27.604;2022-12-13T13:38:51;99558.03;;;0.08;71.42
60427;BME280;46274;47.168;27.604;2022-12-13T13:45:23;99678.66;;;0.55;70.47
60427;BME280;46274;47.168;27.604;2022-12-13T14:30:42;99674.28;;;-0.03;72.07
60427;BME280;46274;47.168;27.604;2022-12-13T14:37:01;99678.47;;;-0.23;72.34
60427;BME280;46274;47.168;27.604;2022-12-13T14:43:19;99687.03;;;-0.30;72.01
60427;BME280;46274;47.168;27.604;2022-12-13T14:49:39;99667.47;;;-0.64;72.03
60427;BME280;46274;47.168;27.604;2022-12-13T15:02:32;99731.97;;;-0.50;72.08
60427;BME280;46274;47.168;27.604;2022-12-13T15:08:37;99728.84;;;-0.68;70.99
60427;BME280;46274;47.168;27.604;2022-12-13T15:14:46;99741.63;;;-0.73;71.71
60427;BME280;46274;47.168;27.604;2022-12-13T15:20:51;99721.63;;;-0.66;71.09
60427;BME280;46274;47.168;27.604;2022-12-13T15:26:56;99701.69;;;-1.08;71.37
60427;BME280;46274;47.168;27.604;2022-12-13T15:33:06;99740.50;;;-0.57;70.94
60427;BME280;46274;47.168;27.604;2022-12-13T15:39:10;99749.97;;;-1.14;70.44
60427;BME280;46274;47.168;27.604;2022-12-13T15:45:23;99757.34;;;-0.94;71.25
60427;BME280;46274;47.168;27.604;2022-12-13T15:51:52;99757.84;;;-1.13;71.26
60427;BME280;46274;47.168;27.604;2022-12-13T15:57:58;99753.00;;;-1.32;71.71
60427;BME280;46274;47.168;27.604;2022-12-13T16:04:02;99663.16;;;-2.14;71.98
60427;BME280;46274;47.168;27.604;2022-12-13T16:10:16;99773.19;;;-1.29;71.52
60427;BME280;46274;47.168;27.604;2022-12-13T16:16:28;99746.28;;;-1.50;71.91
60427;BME280;46274;47.168;27.604;2022-12-13T16:22:34;99768.72;;;-1.41;71.59
60427;BME280;46274;47.168;27.604;2022-12-13T16:28:40;99785.22;;;-1.49;71.93
60427;BME280;46274;47.168;27.604;2022-12-13T16:34:42;99719.13;;;-1.79;71.42
60427;BME280;46274;47.168;27.604;2022-12-13T16:40:46;99644.91;;;-2.32;71.84
60427;BME280;46274;47.168;27.604;2022-12-13T16:46:54;99694.59;;;-2.08;71.73
60427;BME280;46274;47.168;27.604;2022-12-13T16:53:17;99772.78;;;-1.48;71.70
60427;BME280;46274;47.168;27.604;2022-12-13T16:59:24;99824.50;;;-2.20;74.22
60427;BME280;46274;47.168;27.604;2022-12-13T17:05:27;99822.59;;;-2.17;75.08
60427;BME280;46274;47.168;27.604;2022-12-13T17:11:33;99832.41;;;-2.05;75.02
60427;BME280;46274;47.168;27.604;2022-12-13T17:17:37;99671.66;;;-3.29;74.54
60427;BME280;46274;47.168;27.604;2022-12-13T17:23:40;99806.31;;;-2.80;76.99
60427;BME280;46274;47.168;27.604;2022-12-13T17:29:42;99845.28;;;-2.53;77.10
60427;BME280;46274;47.168;27.604;2022-12-13T17:35:48;99855.16;;;-2.28;77.52
60427;BME280;46274;47.168;27.604;2022-12-13T17:41:50;99856.94;;;-1.62;74.89
60427;BME280;46274;47.168;27.604;2022-12-13T17:47:56;99861.84;;;-2.23;76.90
60427;BME280;46274;47.168;27.604;2022-12-13T17:53:58;99852.78;;;-2.33;77.96
60427;BME280;46274;47.168;27.604;2022-12-13T18:00:02;99844.25;;;-2.24;77.58
60427;BME280;46274;47.168;27.604;2022-12-13T18:06:04;99826.34;;;-1.42;74.40
60427;BME280;46274;47.168;27.604;2022-12-13T18:12:08;99853.56;;;-1.25;74.87
60427;BME280;46274;47.168;27.604;2022-12-13T18:18:11;99857.59;;;-1.20;75.23
60427;BME280;46274;47.168;27.604;2022-12-13T18:24:14;99860.00;;;-1.04;74.05
60427;BME280;46274;47.168;27.604;2022-12-13T18:30:16;99837.16;;;-2.50;78.29
60427;BME280;46274;47.168;27.604;2022-12-13T18:36:21;99852.44;;;-2.82;79.27
60427;BME280;46274;47.168;27.604;2022-12-13T18:42:24;99808.72;;;-2.08;75.68
60427;BME280;46274;47.168;27.604;2022-12-13T18:48:27;99879.50;;;-2.63;79.16
60427;BME280;46274;47.168;27.604;2022-12-13T18:54:29;99874.38;;;-2.25;77.78
60427;BME280;46274;47.168;27.604;2022-12-13T19:00:31;99876.81;;;-1.55;74.72
60427;BME280;46274;47.168;27.604;2022-12-13T19:06:34;99850.63;;;-1.73;74.65
60427;BME280;46274;47.168;27.604;2022-12-13T19:12:36;99830.94;;;-1.97;74.37
60427;BME280;46274;47.168;27.604;2022-12-13T19:18:40;99878.28;;;-2.03;73.79
60427;BME280;46274;47.168;27.604;2022-12-13T19:24:42;99860.22;;;-3.08;75.90
60427;BME280;46274;47.168;27.604;2022-12-13T19:30:45;99886.22;;;-2.16;75.09
60427;BME280;46274;47.168;27.604;2022-12-13T19:36:48;99869.56;;;-2.05;74.16
60427;BME280;46274;47.168;27.604;2022-12-13T19:42:50;99881.44;;;-2.11;73.92
60427;BME280;46274;47.168;27.604;2022-12-13T19:48:52;99888.81;;;-2.43;74.57
60427;BME280;46274;47.168;27.604;2022-12-13T19:54:55;99893.75;;;-3.07;77.39
60427;BME280;46274;47.168;27.604;2022-12-13T20:01:01;99812.44;;;-3.07;74.40
60427;BME280;46274;47.168;27.604;2022-12-13T20:07:04;99814.94;;;-4.21;76.92
60427;BME280;46274;47.168;27.604;2022-12-13T20:13:06;99875.19;;;-4.10;76.36
60427;BME280;46274;47.168;27.604;2022-12-13T20:19:10;99839.56;;;-3.46;75.29
60427;BME280;46274;47.168;27.604;2022-12-13T20:25:15;99887.28;;;-4.06;78.52
60427;BME280;46274;47.168;27.604;2022-12-13T20:31:23;99903.84;;;-4.34;80.89
60427;BME280;46274;47.168;27.604;2022-12-13T20:37:25;99899.84;;;-4.57;80.89
60427;BME280;46274;47.168;27.604;2022-12-13T20:43:28;99779.50;;;-5.44;81.07
60427;BME280;46274;47.168;27.604;2022-12-13T20:49:31;99873.22;;;-4.70;81.51
60427;BME280;46274;47.168;27.604;2022-12-13T20:55:34;99878.94;;;-4.62;81.03
60427;BME280;46274;47.168;27.604;2022-12-13T21:01:39;99882.59;;;-4.17;78.62
60427;BME280;46274;47.168;27.604;2022-12-13T21:07:41;99882.47;;;-5.44;81.00
60427;BME280;46274;47.168;27.604;2022-12-13T21:20:22;99892.41;;;-5.32;82.84
60427;BME280;46274;47.168;27.604;2022-12-13T21:26:24;99897.13;;;-5.38;81.88
60427;BME280;46274;47.168;27.604;2022-12-13T21:32:35;99914.25;;;-5.12;81.41
60427;BME280;46274;47.168;27.604;2022-12-13T21:38:37;99896.34;;;-5.23;79.73
60427;BME280;46274;47.168;27.604;2022-12-13T21:44:43;99913.38;;;-5.46;81.73
60427;BME280;46274;47.168;27.604;2022-12-13T21:50:48;99889.22;;;-5.05;80.32
60427;BME280;46274;47.168;27.604;2022-12-13T21:56:52;99896.50;;;-4.29;77.36
60427;BME280;46274;47.168;27.604;2022-12-13T22:03:13;99887.50;;;-5.06;77.73
60427;BME280;46274;47.168;27.604;2022-12-13T22:09:15;99922.84;;;-5.42;81.26
60427;BME280;46274;47.168;27.604;2022-12-13T22:15:17;99923.63;;;-5.57;81.32
60427;BME280;46274;47.168;27.604;2022-12-13T22:21:20;99925.66;;;-4.78;78.74
60427;BME280;46274;47.168;27.604;2022-12-13T22:27:23;99887.50;;;-5.06;77.36
60427;BME280;46274;47.168;27.604;2022-12-13T22:33:26;99932.72;;;-5.98;80.70
60427;BME280;46274;47.168;27.604;2022-12-13T22:39:31;99862.16;;;-5.77;78.21
60427;BME280;46274;47.168;27.604;2022-12-13T22:45:33;99892.25;;;-5.46;78.75
60427;BME280;46274;47.168;27.604;2022-12-13T22:51:36;99946.06;;;-5.31;78.55
60427;BME280;46274;47.168;27.604;2022-12-13T22:57:42;99943.31;;;-5.30;76.38
60427;BME280;46274;47.168;27.604;2022-12-13T23:03:49;99922.31;;;-6.37;79.98
60427;BME280;46274;47.168;27.604;2022-12-13T23:09:52;99941.56;;;-5.46;78.31
60427;BME280;46274;47.168;27.604;2022-12-13T23:15:54;99861.72;;;-7.13;82.35
60427;BME280;46274;47.168;27.604;2022-12-13T23:21:57;99930.88;;;-6.51;81.39
60427;BME280;46274;47.168;27.604;2022-12-13T23:27:59;99942.81;;;-6.25;80.41
60427;BME280;46274;47.168;27.604;2022-12-13T23:34:02;99965.06;;;-5.94;77.93
60427;BME280;46274;47.168;27.604;2022-12-13T23:40:06;99678.69;;;-7.96;79.35
60427;BME280;46274;47.168;27.604;2022-12-13T23:46:12;99869.75;;;-6.23;76.14
60427;BME280;46274;47.168;27.604;2022-12-13T23:52:15;99953.81;;;-5.45;76.86
60427;BME280;46274;47.168;27.604;2022-12-13T23:58:19;99959.50;;;-5.18;75.44
